sensor_id;sensor_type;location;lat;lon;timestamp;pressure;altitude;pressure_sealevel;temperature;humidity
9796;BME280;4937;42.680;27.704;2023-12-14T18:20:26;100828.22;;;27.35;33.53
9796;BME280;4937;42.680;27.704;2023-12-14T18:26:16;100854.88;;;23.48;37.75
9796;BME280;4937;42.680;27.704;2023-12-14T18:28:42;100862.59;;;23.02;38.65
9796;BME280;4937;42.680;27.704;2023-12-14T18:31:08;100859.66;;;21.82;40.72
9796;BME280;4937;42.680;27.704;2023-12-14T18:33:35;100848.53;;;20.79;42.81
9796;BME280;4937;42.680;27.704;2023-12-14T18:36:01;100850.31;;;19.86;45.02
9796;BME280;4937;42.680;27.704;2023-12-14T18:38:27;100862.16;;;18.93;49.07
9796;BME280;4937;42.680;27.704;2023-12-14T18:40:52;100872.84;;;18.34;50.83
9796;BME280;4937;42.680;27.704;2023-12-14T18:43:18;100879.91;;;17.80;52.27
9796;BME280;4937;42.680;27.704;2023-12-14T18:45:43;100868.53;;;16.97;54.30
9796;BME280;4937;42.680;27.704;2023-12-14T18:48:09;100874.22;;;16.64;55.29
9796;BME280;4937;42.680;27.704;2023-12-14T18:50:35;100867.59;;;16.29;55.63
9796;BME280;4937;42.680;27.704;2023-12-14T18:53:00;100869.38;;;15.94;55.66
9796;BME280;4937;42.680;27.704;2023-12-14T18:55:28;100868.25;;;15.67;57.10
9796;BME280;4937;42.680;27.704;2023-12-14T18:57:53;100872.94;;;15.34;56.58
9796;BME280;4937;42.680;27.704;2023-12-14T19:00:19;100868.81;;;15.12;56.85
9796;BME280;4937;42.680;27.704;2023-12-14T19:02:45;100879.00;;;14.87;56.47
9796;BME280;4937;42.680;27.704;2023-12-14T19:05:10;100886.38;;;14.72;56.87
9796;BME280;4937;42.680;27.704;2023-12-14T19:07:36;100876.22;;;14.60;56.65
9796;BME280;4937;42.680;27.704;2023-12-14T19:10:02;100869.56;;;14.49;57.47
9796;BME280;4937;42.680;27.704;2023-12-14T19:12:28;100880.31;;;14.29;58.55
9796;BME280;4937;42.680;27.704;2023-12-14T19:14:53;100884.75;;;14.26;58.15
9796;BME280;4937;42.680;27.704;2023-12-14T19:17:20;100875.78;;;14.22;57.99
9796;BME280;4937;42.680;27.704;2023-12-14T19:19:45;100883.19;;;14.16;58.19
9796;BME280;4937;42.680;27.704;2023-12-14T19:22:11;100888.72;;;14.07;58.33
9796;BME280;4937;42.680;27.704;2023-12-14T19:24:38;100892.38;;;14.04;58.49
9796;BME280;4937;42.680;27.704;2023-12-14T19:27:04;100894.06;;;13.93;59.27
9796;BME280;4937;42.680;27.704;2023-12-14T19:29:29;100897.13;;;13.94;59.31
9796;BME280;4937;42.680;27.704;2023-12-14T19:31:55;100908.50;;;13.87;59.43
9796;BME280;4937;42.680;27.704;2023-12-14T19:34:21;100902.47;;;13.89;59.54
9796;BME280;4937;42.680;27.704;2023-12-14T19:36:47;100909.53;;;13.81;59.50
9796;BME280;4937;42.680;27.704;2023-12-14T19:39:12;100918.50;;;13.85;59.83
9796;BME280;4937;42.680;27.704;2023-12-14T19:41:38;100916.94;;;13.84;59.78
9796;BME280;4937;42.680;27.704;2023-12-14T19:44:04;100917.22;;;13.77;60.06
9796;BME280;4937;42.680;27.704;2023-12-14T19:46:29;100911.34;;;13.75;59.84
9796;BME280;4937;42.680;27.704;2023-12-14T19:48:55;100919.66;;;13.75;60.38
9796;BME280;4937;42.680;27.704;2023-12-14T19:51:20;100922.31;;;13.78;60.09
9796;BME280;4937;42.680;27.704;2023-12-14T19:53:46;100915.97;;;13.78;60.39
9796;BME280;4937;42.680;27.704;2023-12-14T19:56:11;100918.00;;;13.77;60.38
9796;BME280;4937;42.680;27.704;2023-12-14T19:58:36;100920.59;;;13.72;61.24
9796;BME280;4937;42.680;27.704;2023-12-14T20:01:02;100925.50;;;13.68;61.63
9796;BME280;4937;42.680;27.704;2023-12-14T20:03:30;100918.72;;;13.69;61.42
9796;BME280;4937;42.680;27.704;2023-12-14T20:05:56;100926.84;;;13.63;61.81
9796;BME280;4937;42.680;27.704;2023-12-14T20:08:21;100932.84;;;13.62;61.73
9796;BME280;4937;42.680;27.704;2023-12-14T20:10:47;100936.06;;;13.60;61.43
9796;BME280;4937;42.680;27.704;2023-12-14T20:13:13;100936.72;;;13.64;61.31
9796;BME280;4937;42.680;27.704;2023-12-14T20:15:40;100938.88;;;13.69;60.55
9796;BME280;4937;42.680;27.704;2023-12-14T20:18:06;100941.94;;;13.62;60.38
9796;BME280;4937;42.680;27.704;2023-12-14T20:20:32;100938.56;;;13.67;60.89
9796;BME280;4937;42.680;27.704;2023-12-14T20:22:59;100944.88;;;13.68;61.03
9796;BME280;4937;42.680;27.704;2023-12-14T20:25:24;100949.38;;;13.74;60.56
9796;BME280;4937;42.680;27.704;2023-12-14T20:27:50;100949.81;;;13.73;61.88
9796;BME280;4937;42.680;27.704;2023-12-14T20:30:17;100944.25;;;13.64;61.99
9796;BME280;4937;42.680;27.704;2023-12-14T20:32:42;100949.19;;;13.69;62.34
9796;BME280;4937;42.680;27.704;2023-12-14T20:35:07;100954.16;;;13.74;62.34
9796;BME280;4937;42.680;27.704;2023-12-14T20:37:33;100951.22;;;13.68;62.46
9796;BME280;4937;42.680;27.704;2023-12-14T20:39:58;100959.94;;;13.67;62.21
9796;BME280;4937;42.680;27.704;2023-12-14T20:42:24;100965.16;;;13.65;62.36
9796;BME280;4937;42.680;27.704;2023-12-14T20:44:49;100972.31;;;13.75;61.67
9796;BME280;4937;42.680;27.704;2023-12-14T20:47:15;100968.13;;;13.70;62.53
9796;BME280;4937;42.680;27.704;2023-12-14T20:49:40;100982.25;;;13.63;62.31
9796;BME280;4937;42.680;27.704;2023-12-14T20:52:05;100992.69;;;13.59;61.76
9796;BME280;4937;42.680;27.704;2023-12-14T20:54:31;100984.13;;;13.45;63.21
9796;BME280;4937;42.680;27.704;2023-12-14T20:56:56;100989.03;;;13.41;63.47
9796;BME280;4937;42.680;27.704;2023-12-14T20:59:21;100989.06;;;13.28;65.56
9796;BME280;4937;42.680;27.704;2023-12-14T21:01:48;100994.13;;;13.08;66.45
9796;BME280;4937;42.680;27.704;2023-12-14T21:04:14;100997.47;;;13.03;65.22
9796;BME280;4937;42.680;27.704;2023-12-14T21:06:39;101003.00;;;12.90;65.93
9796;BME280;4937;42.680;27.704;2023-12-14T21:09:05;101004.69;;;12.75;67.47
9796;BME280;4937;42.680;27.704;2023-12-14T21:11:30;101007.59;;;12.59;68.21
9796;BME280;4937;42.680;27.704;2023-12-14T21:13:56;101004.06;;;12.46;69.04
9796;BME280;4937;42.680;27.704;2023-12-14T21:16:21;101003.75;;;12.32;68.30
9796;BME280;4937;42.680;27.704;2023-12-14T21:18:47;101016.34;;;12.20;69.93
9796;BME280;4937;42.680;27.704;2023-12-14T21:21:13;101014.13;;;12.15;69.23
9796;BME280;4937;42.680;27.704;2023-12-14T21:23:39;101023.63;;;12.14;70.68
9796;BME280;4937;42.680;27.704;2023-12-14T21:26:04;101018.19;;;12.11;69.49
9796;BME280;4937;42.680;27.704;2023-12-14T21:28:34;101025.41;;;12.08;70.51
9796;BME280;4937;42.680;27.704;2023-12-14T21:30:59;101026.03;;;12.00;70.87
9796;BME280;4937;42.680;27.704;2023-12-14T21:33:25;101021.63;;;12.02;71.09
9796;BME280;4937;42.680;27.704;2023-12-14T21:35:52;101022.06;;;12.01;71.74
9796;BME280;4937;42.680;27.704;2023-12-14T21:38:18;101026.38;;;12.02;70.50
9796;BME280;4937;42.680;27.704;2023-12-14T21:40:45;101032.69;;;12.02;70.19
9796;BME280;4937;42.680;27.704;2023-12-14T21:43:11;101029.03;;;12.05;70.76
9796;BME280;4937;42.680;27.704;2023-12-14T21:45:37;101027.06;;;12.06;71.84
9796;BME280;4937;42.680;27.704;2023-12-14T21:48:02;101030.81;;;12.12;71.84
9796;BME280;4937;42.680;27.704;2023-12-14T21:50:28;101036.13;;;12.06;70.48
9796;BME280;4937;42.680;27.704;2023-12-14T21:52:53;101041.31;;;12.04;71.18
9796;BME280;4937;42.680;27.704;2023-12-14T21:55:19;101042.28;;;11.98;70.46
9796;BME280;4937;42.680;27.704;2023-12-14T21:57:44;101041.84;;;11.99;68.76
9796;BME280;4937;42.680;27.704;2023-12-14T22:00:10;101047.34;;;11.99;69.17
9796;BME280;4937;42.680;27.704;2023-12-14T22:02:35;101043.94;;;11.95;70.17
9796;BME280;4937;42.680;27.704;2023-12-14T22:05:02;101034.56;;;12.05;69.75
9796;BME280;4937;42.680;27.704;2023-12-14T22:07:27;101042.94;;;12.02;69.46
9796;BME280;4937;42.680;27.704;2023-12-14T22:09:53;101040.75;;;12.09;68.31
9796;BME280;4937;42.680;27.704;2023-12-14T22:12:18;101042.75;;;12.09;68.22
9796;BME280;4937;42.680;27.704;2023-12-14T22:14:44;101039.53;;;12.10;68.58
9796;BME280;4937;42.680;27.704;2023-12-14T22:17:09;101046.63;;;12.11;68.36
9796;BME280;4937;42.680;27.704;2023-12-14T22:19:34;101053.34;;;12.10;68.52
9796;BME280;4937;42.680;27.704;2023-12-14T22:22:05;101060.00;;;12.13;69.40
9796;BME280;4937;42.680;27.704;2023-12-14T22:24:30;101049.63;;;12.17;70.65
9796;BME280;4937;42.680;27.704;2023-12-14T22:26:56;101053.78;;;12.09;70.06
9796;BME280;4937;42.680;27.704;2023-12-14T22:29:21;101058.66;;;12.05;69.10
